METAR AND TAF INFORMATION
METAR FOR SBMT
ADDS - METARS form results

(2343 UTC 11 December 2018)
Data provider http://aviationweather.gov/metar/data/
 
METAR text: SBMT 112300Z 13007KT CAVOK 26/16 Q1021
Conditions at: SBMT (MARTE (CIV/MIL) , BR) observed 2300 UTC 11 December 2018
Temperature: 26.0°C (79°F)
Dewpoint: 16.0°C (61°F) [RH = 54%]
Pressure (altimeter): 30.15 inches Hg (1021.0 mb)
Winds: from the SE (130 degrees) at 8 MPH (7 knots; 3.6 m/s)
Visibility: 6 or more miles (10+ km)
Ceiling: ceiling and visibility are OK
Clouds: unknown
Weather: no significant weather observed at this time

 AIRPORT MAP

 RUNWAY INFORMATION
Runway 12 Runway length 5249 ft Runway width 147 ft
Runway elevation 2379 ft Runway displaced threshold 984 ft Runway heading 100
Runway 30 Runway length 5249 ft Runway width 147 ft
Runway elevation 2376 ft Runway displaced threshold 492 ft Runway heading 280

 AIRPORT FREQUENCIES
Type APP Name SAO PAULO Frequency 119.8 MHZ
Type GND Name GND Frequency 121.6 MHZ
Type OPS Name OPS Frequency 122.5 MHZ
Type TWR Name TWR Frequency 118.7 MHZ

 AIRPORT NEAR NAVIGATION AIDS
Type NDB Name Marte Frequency 260 KHZ



Powered by Virtual Airlines Manager [v2.6.2]